createdAt,value
2019-05-29T00:02:18.503Z,11.50
2019-05-29T00:07:24.972Z,11.42
2019-05-29T00:12:31.395Z,11.53
2019-05-29T00:17:37.847Z,11.38
2019-05-29T00:22:44.238Z,11.32
2019-05-29T00:27:50.973Z,11.42
2019-05-29T00:32:57.645Z,11.34
2019-05-29T00:38:04.161Z,11.30
2019-05-29T00:43:11.176Z,11.18
2019-05-29T00:48:17.917Z,11.20
2019-05-29T00:53:24.550Z,11.19
2019-05-29T00:58:31.499Z,11.08
2019-05-29T01:03:37.778Z,11.26
2019-05-29T01:08:44.260Z,11.16
2019-05-29T01:13:50.755Z,11.22
2019-05-29T01:19:16.500Z,10.94
2019-05-29T01:24:23.334Z,11.02
2019-05-29T01:29:29.968Z,11.08
2019-05-29T01:34:36.665Z,10.91
2019-05-29T01:39:42.766Z,11.02
2019-05-29T01:45:03.851Z,10.98
2019-05-29T01:49:57.680Z,10.80
2019-05-29T01:55:05.552Z,10.57
2019-05-29T02:00:12.365Z,10.58
2019-05-29T02:05:19.848Z,10.61
2019-05-29T02:10:26.330Z,10.59
2019-05-29T02:15:34.159Z,10.56
2019-05-29T02:20:40.968Z,10.42
2019-05-29T02:25:47.359Z,10.52
2019-05-29T02:30:53.973Z,10.46
2019-05-29T02:36:00.738Z,10.36
2019-05-29T02:41:07.831Z,10.23
2019-05-29T02:46:14.229Z,10.18
2019-05-29T02:51:22.077Z,10.16
2019-05-29T02:56:29.167Z,10.23
2019-05-29T03:01:36.323Z,10.09
2019-05-29T03:06:42.993Z,10.10
2019-05-29T03:11:49.706Z,10.13
2019-05-29T03:16:56.239Z,10.19
2019-05-29T03:22:02.676Z,10.27
2019-05-29T03:27:09.365Z,10.24
2019-05-29T03:32:16.074Z,10.09
2019-05-29T03:37:22.433Z,10.07
2019-05-29T03:42:30.298Z,10.01
2019-05-29T03:47:37.196Z,10.19
2019-05-29T03:52:43.750Z,10.28
2019-05-29T03:57:49.931Z,10.37
2019-05-29T04:02:56.460Z,10.22
2019-05-29T04:08:03.139Z,10.29
2019-05-29T04:13:09.835Z,10.15
2019-05-29T04:18:20.879Z,10.32
2019-05-29T04:23:32.084Z,10.35
2019-05-29T04:28:39.030Z,10.24
2019-05-29T04:33:45.248Z,10.52
2019-05-29T04:38:51.635Z,10.68
2019-05-29T04:43:58.008Z,10.94
2019-05-29T04:49:04.599Z,10.79
2019-05-29T04:54:11.302Z,10.91
2019-05-29T04:59:17.763Z,11.03
2019-05-29T05:04:24.050Z,11.19
2019-05-29T05:09:31.254Z,11.24
2019-05-29T05:14:38.036Z,11.29
2019-05-29T05:19:44.436Z,11.66
2019-05-29T05:24:50.835Z,11.58
2019-05-29T05:29:56.904Z,11.51
2019-05-29T05:35:03.773Z,11.62
2019-05-29T05:40:10.569Z,11.95
2019-05-29T05:45:16.763Z,12.02
2019-05-29T05:50:23.441Z,12.19
2019-05-29T05:55:29.928Z,12.62
2019-05-29T06:00:37.993Z,12.52
2019-05-29T06:05:44.047Z,12.91
2019-05-29T06:10:51.332Z,13.16
2019-05-29T06:15:57.859Z,12.64
2019-05-29T06:21:04.024Z,12.99
2019-05-29T06:26:10.063Z,13.24
2019-05-29T06:31:16.239Z,13.64
2019-05-29T06:36:23.776Z,14.14
2019-05-29T06:41:29.947Z,13.65
2019-05-29T06:46:38.235Z,13.48
2019-05-29T06:51:44.802Z,13.45
2019-05-29T06:56:51.877Z,13.11
2019-05-29T07:01:58.317Z,13.02
2019-05-29T07:07:04.692Z,12.83
2019-05-29T07:12:11.390Z,12.81
2019-05-29T07:17:17.604Z,13.07
2019-05-29T07:22:23.627Z,13.29
2019-05-29T07:27:29.843Z,13.63
2019-05-29T07:32:38.720Z,13.54
2019-05-29T07:37:45.828Z,14.00
2019-05-29T07:42:56.247Z,14.34
2019-05-29T07:48:00.276Z,14.49
2019-05-29T07:53:06.747Z,14.00
2019-05-29T07:58:13.540Z,14.31
2019-05-29T08:03:20.535Z,14.02
2019-05-29T08:08:26.986Z,13.72
2019-05-29T08:13:33.368Z,13.61
2019-05-29T08:18:41.670Z,13.55
2019-05-29T08:23:48.865Z,14.54
2019-05-29T08:28:55.624Z,14.61
2019-05-29T08:34:01.906Z,14.51
2019-05-29T08:39:09.007Z,15.07
2019-05-29T08:44:15.404Z,14.30
2019-05-29T08:49:21.779Z,14.34
2019-05-29T08:54:28.150Z,14.07
2019-05-29T08:59:35.148Z,14.03
2019-05-29T09:04:43.043Z,14.19
2019-05-29T09:09:51.120Z,14.43
2019-05-29T09:14:58.093Z,14.31
2019-05-29T09:20:05.994Z,14.41
2019-05-29T09:25:13.619Z,14.53
2019-05-29T09:30:21.804Z,14.65
2019-05-29T09:35:27.851Z,14.15
2019-05-29T09:40:34.268Z,13.86
2019-05-29T09:45:40.447Z,13.92
2019-05-29T09:50:50.415Z,13.85
2019-05-29T09:55:57.243Z,14.17
2019-05-29T10:01:19.498Z,13.96
2019-05-29T10:06:12.375Z,14.02
2019-05-29T10:11:19.263Z,14.32
2019-05-29T10:16:25.778Z,14.53
2019-05-29T10:21:40.156Z,14.64
2019-05-29T10:26:41.165Z,14.78
2019-05-29T10:31:49.811Z,15.34
2019-05-29T10:36:56.049Z,15.78
2019-05-29T10:42:02.769Z,16.25
2019-05-29T10:47:09.268Z,16.79
2019-05-29T10:52:17.538Z,16.97
2019-05-29T10:57:24.208Z,16.94
2019-05-29T11:02:30.961Z,16.87
2019-05-29T11:07:37.484Z,17.80
2019-05-29T11:12:44.241Z,18.32
2019-05-29T11:17:51.367Z,19.31
2019-05-29T11:22:58.575Z,19.08
2019-05-29T11:28:05.063Z,18.42
2019-05-29T11:33:11.627Z,17.31
2019-05-29T11:38:18.376Z,17.92
2019-05-29T11:43:24.960Z,17.59
2019-05-29T11:48:31.781Z,17.85
2019-05-29T11:53:38.331Z,17.90
2019-05-29T11:58:44.741Z,17.52
2019-05-29T12:04:15.597Z,16.49
2019-05-29T12:09:00.118Z,16.03
2019-05-29T12:14:06.766Z,15.92
2019-05-29T12:19:13.893Z,15.77
2019-05-29T12:24:20.627Z,15.57
2019-05-29T12:29:26.723Z,15.82
2019-05-29T12:34:33.523Z,15.61
2019-05-29T12:39:40.421Z,15.95
2019-05-29T12:44:47.521Z,16.19
2019-05-29T12:49:55.428Z,16.41
2019-05-29T12:55:02.458Z,16.50
2019-05-29T13:00:11.003Z,16.52
2019-05-29T13:05:20.535Z,16.84
2019-05-29T13:10:31.052Z,17.16
2019-05-29T13:15:35.663Z,17.22
2019-05-29T13:20:42.382Z,17.42
2019-05-29T13:25:48.548Z,17.27
2019-05-29T13:30:55.782Z,17.21
2019-05-29T13:36:02.517Z,17.13
2019-05-29T13:41:08.606Z,17.11
2019-05-29T13:46:14.781Z,17.98
2019-05-29T13:51:21.676Z,18.02
2019-05-29T13:56:28.138Z,17.52
2019-05-29T14:01:34.944Z,18.41
2019-05-29T14:06:41.413Z,18.94
2019-05-29T14:11:47.592Z,17.97
2019-05-29T14:16:53.998Z,17.87
2019-05-29T14:22:01.135Z,17.77
2019-05-29T14:27:07.812Z,17.73
2019-05-29T14:32:14.356Z,17.65
2019-05-29T14:37:20.438Z,18.11
2019-05-29T14:42:27.229Z,17.71
2019-05-29T14:47:33.498Z,17.33
2019-05-29T14:52:40.138Z,17.24
2019-05-29T14:57:46.883Z,17.20
2019-05-29T15:02:53.554Z,17.13
2019-05-29T15:07:59.900Z,17.03
2019-05-29T15:13:06.723Z,17.48
2019-05-29T15:18:17.266Z,17.34
2019-05-29T15:23:21.669Z,16.86
2019-05-29T15:28:27.790Z,16.87
2019-05-29T15:33:33.939Z,16.61
2019-05-29T15:38:40.424Z,16.48
2019-05-29T15:43:49.318Z,16.65
2019-05-29T15:48:54.432Z,17.02
2019-05-29T15:54:00.865Z,16.81
2019-05-29T15:59:07.823Z,16.55
2019-05-29T16:04:15.806Z,16.52
2019-05-29T16:09:22.335Z,16.19
2019-05-29T16:14:28.764Z,16.14
2019-05-29T16:19:35.542Z,15.84
2019-05-29T16:24:42.033Z,15.78
2019-05-29T16:29:48.499Z,15.80
2019-05-29T16:34:55.012Z,16.13
2019-05-29T16:40:01.457Z,16.41
2019-05-29T16:45:10.179Z,16.68
2019-05-29T16:50:17.937Z,16.44
2019-05-29T16:55:25.475Z,16.54
2019-05-29T17:00:31.640Z,16.01
2019-05-29T17:05:38.427Z,15.80
2019-05-29T17:10:44.807Z,16.37
2019-05-29T17:15:51.615Z,16.37
2019-05-29T17:20:57.971Z,16.94
2019-05-29T17:26:10.520Z,16.67
2019-05-29T17:31:12.671Z,16.64
2019-05-29T17:36:18.981Z,16.29
2019-05-29T17:41:25.731Z,16.32
2019-05-29T17:46:32.366Z,16.35
2019-05-29T17:51:38.881Z,15.82
2019-05-29T17:56:44.955Z,15.64
2019-05-29T18:01:51.591Z,15.55
2019-05-29T18:06:57.688Z,15.17
2019-05-29T18:12:03.885Z,14.99
2019-05-29T18:17:10.346Z,14.93
2019-05-29T18:22:17.503Z,14.83
2019-05-29T18:27:24.342Z,14.56
2019-05-29T18:32:30.717Z,14.24
2019-05-29T18:37:37.462Z,13.93
2019-05-29T18:42:44.178Z,13.99
2019-05-29T18:47:50.786Z,13.68
2019-05-29T18:52:57.670Z,13.41
2019-05-29T18:58:04.215Z,13.21
2019-05-29T19:03:11.131Z,13.22
2019-05-29T19:08:18.143Z,12.96
2019-05-29T19:13:24.188Z,12.76
2019-05-29T19:18:30.667Z,12.40
2019-05-29T19:23:37.193Z,12.43
2019-05-29T19:28:43.571Z,12.26
2019-05-29T19:33:50.275Z,11.94
2019-05-29T19:38:56.737Z,11.87
2019-05-29T19:44:02.909Z,11.73
2019-05-29T19:49:09.741Z,11.46
2019-05-29T19:54:16.209Z,11.68
2019-05-29T19:59:22.655Z,11.56
2019-05-29T20:04:30.556Z,11.71
2019-05-29T20:09:37.682Z,11.72
2019-05-29T20:14:43.711Z,11.77
2019-05-29T20:19:49.983Z,11.55
2019-05-29T20:24:56.991Z,11.55
2019-05-29T20:30:03.801Z,11.69
2019-05-29T20:35:10.679Z,11.55
2019-05-29T20:40:17.459Z,11.68
2019-05-29T20:45:23.554Z,11.77
2019-05-29T20:50:30.899Z,11.40
2019-05-29T20:55:37.751Z,11.36
2019-05-29T21:00:44.297Z,11.27
2019-05-29T21:05:50.816Z,11.48
2019-05-29T21:10:57.180Z,11.54
2019-05-29T21:16:03.651Z,11.58
2019-05-29T21:21:10.040Z,11.54
2019-05-29T21:26:16.819Z,11.49
2019-05-29T21:31:23.283Z,11.37
2019-05-29T21:36:29.303Z,11.31
2019-05-29T21:41:36.341Z,11.24
2019-05-29T21:46:43.130Z,11.14
2019-05-29T21:51:49.188Z,11.09
2019-05-29T21:56:55.588Z,11.02
2019-05-29T22:02:02.115Z,10.82
2019-05-29T22:07:08.919Z,10.54
2019-05-29T22:12:15.755Z,10.42
2019-05-29T22:17:22.242Z,10.28
2019-05-29T22:22:28.638Z,10.08
2019-05-29T22:27:35.415Z,9.91
2019-05-29T22:32:41.838Z,9.81
2019-05-29T22:37:48.359Z,9.80
2019-05-29T22:42:55.583Z,9.52
2019-05-29T22:48:02.371Z,9.49
2019-05-29T22:53:09.119Z,9.44
2019-05-29T22:58:15.650Z,9.49
2019-05-29T23:03:22.388Z,9.37
2019-05-29T23:08:28.781Z,9.33
2019-05-29T23:13:35.211Z,8.99
2019-05-29T23:18:42.260Z,9.10
2019-05-29T23:23:48.347Z,8.98
2019-05-29T23:28:55.114Z,9.07
2019-05-29T23:34:03.163Z,9.09
2019-05-29T23:39:09.587Z,8.89
2019-05-29T23:44:15.973Z,8.82
2019-05-29T23:49:22.834Z,8.63
2019-05-29T23:54:28.961Z,8.61
2019-05-29T23:59:35.129Z,8.61
